sensor_id;sensor_type;location;lat;lon;timestamp;P1;durP1;ratioP1;P2;durP2;ratioP2
71941;SDS011;59997;53.300;-6.260;2022-10-14T00:00:11;13.77;;;2.87;;
71941;SDS011;59997;53.300;-6.260;2022-10-14T00:02:37;10.25;;;2.83;;
71941;SDS011;59997;53.300;-6.260;2022-10-14T00:05:02;10.87;;;2.77;;
71941;SDS011;59997;53.300;-6.260;2022-10-14T00:07:28;13.23;;;4.18;;
71941;SDS011;59997;53.300;-6.260;2022-10-14T00:09:53;9.80;;;3.20;;
71941;SDS011;59997;53.300;-6.260;2022-10-14T00:12:19;14.67;;;3.30;;
71941;SDS011;59997;53.300;-6.260;2022-10-14T00:14:44;11.38;;;2.83;;
71941;SDS011;59997;53.300;-6.260;2022-10-14T00:17:10;12.73;;;2.97;;
71941;SDS011;59997;53.300;-6.260;2022-10-14T00:19:36;10.67;;;3.13;;
71941;SDS011;59997;53.300;-6.260;2022-10-14T00:22:01;11.68;;;3.15;;
71941;SDS011;59997;53.300;-6.260;2022-10-14T00:24:27;11.47;;;3.30;;
71941;SDS011;59997;53.300;-6.260;2022-10-14T00:26:52;13.07;;;3.23;;
71941;SDS011;59997;53.300;-6.260;2022-10-14T00:29:18;9.35;;;3.45;;
71941;SDS011;59997;53.300;-6.260;2022-10-14T00:31:43;10.00;;;3.80;;
71941;SDS011;59997;53.300;-6.260;2022-10-14T00:34:09;11.40;;;3.95;;
71941;SDS011;59997;53.300;-6.260;2022-10-14T00:36:39;13.73;;;3.80;;
71941;SDS011;59997;53.300;-6.260;2022-10-14T00:39:06;11.67;;;3.40;;
71941;SDS011;59997;53.300;-6.260;2022-10-14T00:41:32;14.63;;;3.40;;
71941;SDS011;59997;53.300;-6.260;2022-10-14T00:46:32;10.68;;;3.30;;
71941;SDS011;59997;53.300;-6.260;2022-10-14T00:49:00;13.18;;;3.42;;
71941;SDS011;59997;53.300;-6.260;2022-10-14T00:51:29;13.67;;;3.50;;
71941;SDS011;59997;53.300;-6.260;2022-10-14T00:53:55;11.82;;;2.80;;
71941;SDS011;59997;53.300;-6.260;2022-10-14T00:56:24;12.03;;;3.50;;
71941;SDS011;59997;53.300;-6.260;2022-10-14T00:58:52;9.98;;;2.97;;
71941;SDS011;59997;53.300;-6.260;2022-10-14T01:01:18;15.13;;;3.42;;
71941;SDS011;59997;53.300;-6.260;2022-10-14T01:03:43;11.67;;;2.40;;
71941;SDS011;59997;53.300;-6.260;2022-10-14T01:09:03;12.52;;;2.67;;
71941;SDS011;59997;53.300;-6.260;2022-10-14T01:14:18;9.23;;;1.77;;
71941;SDS011;59997;53.300;-6.260;2022-10-14T01:22:07;10.23;;;2.20;;
71941;SDS011;59997;53.300;-6.260;2022-10-14T01:25:00;10.02;;;1.95;;
71941;SDS011;59997;53.300;-6.260;2022-10-14T01:30:37;9.55;;;2.30;;
71941;SDS011;59997;53.300;-6.260;2022-10-14T01:33:24;12.07;;;2.03;;
71941;SDS011;59997;53.300;-6.260;2022-10-14T01:36:02;12.70;;;1.92;;
71941;SDS011;59997;53.300;-6.260;2022-10-14T01:38:36;9.65;;;2.00;;
71941;SDS011;59997;53.300;-6.260;2022-10-14T01:41:16;7.40;;;1.30;;
71941;SDS011;59997;53.300;-6.260;2022-10-14T01:43:46;9.30;;;1.60;;
71941;SDS011;59997;53.300;-6.260;2022-10-14T01:46:14;10.13;;;1.50;;
71941;SDS011;59997;53.300;-6.260;2022-10-14T01:48:44;8.82;;;1.58;;
71941;SDS011;59997;53.300;-6.260;2022-10-14T01:51:13;10.80;;;1.80;;
71941;SDS011;59997;53.300;-6.260;2022-10-14T01:53:45;8.95;;;1.52;;
71941;SDS011;59997;53.300;-6.260;2022-10-14T01:56:18;8.90;;;1.25;;
71941;SDS011;59997;53.300;-6.260;2022-10-14T01:58:45;7.73;;;1.30;;
71941;SDS011;59997;53.300;-6.260;2022-10-14T02:01:11;7.82;;;0.90;;
71941;SDS011;59997;53.300;-6.260;2022-10-14T02:03:37;12.88;;;2.05;;
71941;SDS011;59997;53.300;-6.260;2022-10-14T02:06:09;8.83;;;1.27;;
71941;SDS011;59997;53.300;-6.260;2022-10-14T02:11:26;7.95;;;1.10;;
71941;SDS011;59997;53.300;-6.260;2022-10-14T02:26:54;10.77;;;1.52;;
71941;SDS011;59997;53.300;-6.260;2022-10-14T02:29:24;5.15;;;0.70;;
71941;SDS011;59997;53.300;-6.260;2022-10-14T02:31:51;10.63;;;1.20;;
71941;SDS011;59997;53.300;-6.260;2022-10-14T02:34:18;8.45;;;1.00;;
71941;SDS011;59997;53.300;-6.260;2022-10-14T02:36:46;7.15;;;0.77;;
71941;SDS011;59997;53.300;-6.260;2022-10-14T02:39:14;9.85;;;1.02;;
71941;SDS011;59997;53.300;-6.260;2022-10-14T02:41:45;7.10;;;0.95;;
71941;SDS011;59997;53.300;-6.260;2022-10-14T02:44:11;7.47;;;0.73;;
71941;SDS011;59997;53.300;-6.260;2022-10-14T02:46:37;9.20;;;0.77;;
71941;SDS011;59997;53.300;-6.260;2022-10-14T02:49:05;8.27;;;0.68;;
71941;SDS011;59997;53.300;-6.260;2022-10-14T02:51:30;10.82;;;1.10;;
71941;SDS011;59997;53.300;-6.260;2022-10-14T02:53:56;7.93;;;0.80;;
71941;SDS011;59997;53.300;-6.260;2022-10-14T02:56:22;9.40;;;0.70;;
71941;SDS011;59997;53.300;-6.260;2022-10-14T02:58:47;7.20;;;0.65;;
71941;SDS011;59997;53.300;-6.260;2022-10-14T03:01:13;7.73;;;0.80;;
71941;SDS011;59997;53.300;-6.260;2022-10-14T03:03:38;7.35;;;0.75;;
71941;SDS011;59997;53.300;-6.260;2022-10-14T03:06:04;5.73;;;0.80;;
71941;SDS011;59997;53.300;-6.260;2022-10-14T03:08:30;9.90;;;0.95;;
71941;SDS011;59997;53.300;-6.260;2022-10-14T03:10:55;8.73;;;1.00;;
71941;SDS011;59997;53.300;-6.260;2022-10-14T03:13:20;6.80;;;0.70;;
71941;SDS011;59997;53.300;-6.260;2022-10-14T03:15:47;7.50;;;0.97;;
71941;SDS011;59997;53.300;-6.260;2022-10-14T03:18:14;4.43;;;0.55;;
71941;SDS011;59997;53.300;-6.260;2022-10-14T03:20:41;9.63;;;1.10;;
71941;SDS011;59997;53.300;-6.260;2022-10-14T03:23:08;6.63;;;1.00;;
71941;SDS011;59997;53.300;-6.260;2022-10-14T03:25:34;6.63;;;0.80;;
71941;SDS011;59997;53.300;-6.260;2022-10-14T03:28:00;9.53;;;1.10;;
71941;SDS011;59997;53.300;-6.260;2022-10-14T03:30:25;4.83;;;0.40;;
71941;SDS011;59997;53.300;-6.260;2022-10-14T03:32:51;8.52;;;0.70;;
71941;SDS011;59997;53.300;-6.260;2022-10-14T03:35:16;9.20;;;1.50;;
71941;SDS011;59997;53.300;-6.260;2022-10-14T03:37:42;7.37;;;0.80;;
71941;SDS011;59997;53.300;-6.260;2022-10-14T03:40:07;6.90;;;0.80;;
71941;SDS011;59997;53.300;-6.260;2022-10-14T03:42:34;8.55;;;1.20;;
71941;SDS011;59997;53.300;-6.260;2022-10-14T03:44:59;10.75;;;1.73;;
71941;SDS011;59997;53.300;-6.260;2022-10-14T03:47:25;8.13;;;0.90;;
71941;SDS011;59997;53.300;-6.260;2022-10-14T03:49:50;8.80;;;1.20;;
71941;SDS011;59997;53.300;-6.260;2022-10-14T03:52:15;6.80;;;0.77;;
71941;SDS011;59997;53.300;-6.260;2022-10-14T03:54:41;7.97;;;0.90;;
71941;SDS011;59997;53.300;-6.260;2022-10-14T03:57:06;5.47;;;0.70;;
71941;SDS011;59997;53.300;-6.260;2022-10-14T03:59:32;9.03;;;1.10;;
71941;SDS011;59997;53.300;-6.260;2022-10-14T04:01:57;6.83;;;0.80;;
71941;SDS011;59997;53.300;-6.260;2022-10-14T04:04:22;9.80;;;1.63;;
71941;SDS011;59997;53.300;-6.260;2022-10-14T04:06:48;5.88;;;0.93;;
71941;SDS011;59997;53.300;-6.260;2022-10-14T04:09:13;8.83;;;1.20;;
71941;SDS011;59997;53.300;-6.260;2022-10-14T04:11:39;6.77;;;1.70;;
71941;SDS011;59997;53.300;-6.260;2022-10-14T04:14:04;5.27;;;0.60;;
71941;SDS011;59997;53.300;-6.260;2022-10-14T04:16:30;6.32;;;1.15;;
71941;SDS011;59997;53.300;-6.260;2022-10-14T04:18:56;8.60;;;1.00;;
71941;SDS011;59997;53.300;-6.260;2022-10-14T04:21:22;8.30;;;1.15;;
71941;SDS011;59997;53.300;-6.260;2022-10-14T04:23:48;6.53;;;0.93;;
71941;SDS011;59997;53.300;-6.260;2022-10-14T04:26:14;8.00;;;0.90;;
71941;SDS011;59997;53.300;-6.260;2022-10-14T04:28:40;6.67;;;1.10;;
71941;SDS011;59997;53.300;-6.260;2022-10-14T04:31:05;11.43;;;1.33;;
71941;SDS011;59997;53.300;-6.260;2022-10-14T04:33:31;7.53;;;0.93;;
71941;SDS011;59997;53.300;-6.260;2022-10-14T04:35:59;5.50;;;0.60;;
71941;SDS011;59997;53.300;-6.260;2022-10-14T04:38:26;10.00;;;1.20;;
71941;SDS011;59997;53.300;-6.260;2022-10-14T04:40:52;7.72;;;0.85;;
71941;SDS011;59997;53.300;-6.260;2022-10-14T04:43:18;6.72;;;1.30;;
71941;SDS011;59997;53.300;-6.260;2022-10-14T04:45:44;7.87;;;1.03;;
71941;SDS011;59997;53.300;-6.260;2022-10-14T04:48:10;6.93;;;0.85;;
71941;SDS011;59997;53.300;-6.260;2022-10-14T04:50:35;6.77;;;1.00;;
71941;SDS011;59997;53.300;-6.260;2022-10-14T04:53:01;8.23;;;0.90;;
71941;SDS011;59997;53.300;-6.260;2022-10-14T04:55:26;7.78;;;0.73;;
71941;SDS011;59997;53.300;-6.260;2022-10-14T04:57:52;6.90;;;1.00;;
71941;SDS011;59997;53.300;-6.260;2022-10-14T05:00:18;6.07;;;1.08;;
71941;SDS011;59997;53.300;-6.260;2022-10-14T05:02:44;8.63;;;0.90;;
71941;SDS011;59997;53.300;-6.260;2022-10-14T05:05:09;7.47;;;0.97;;
71941;SDS011;59997;53.300;-6.260;2022-10-14T05:07:35;7.57;;;0.90;;
71941;SDS011;59997;53.300;-6.260;2022-10-14T05:10:00;7.90;;;0.60;;
71941;SDS011;59997;53.300;-6.260;2022-10-14T05:12:28;7.70;;;1.13;;
71941;SDS011;59997;53.300;-6.260;2022-10-14T05:14:54;6.75;;;0.73;;
71941;SDS011;59997;53.300;-6.260;2022-10-14T05:17:20;7.47;;;1.30;;
71941;SDS011;59997;53.300;-6.260;2022-10-14T05:19:45;9.23;;;0.80;;
71941;SDS011;59997;53.300;-6.260;2022-10-14T05:22:11;5.70;;;0.90;;
71941;SDS011;59997;53.300;-6.260;2022-10-14T05:24:36;4.70;;;0.90;;
71941;SDS011;59997;53.300;-6.260;2022-10-14T05:27:02;8.30;;;0.70;;
71941;SDS011;59997;53.300;-6.260;2022-10-14T05:29:27;8.77;;;1.00;;
71941;SDS011;59997;53.300;-6.260;2022-10-14T05:31:53;4.83;;;0.70;;
71941;SDS011;59997;53.300;-6.260;2022-10-14T05:34:18;6.57;;;1.70;;
71941;SDS011;59997;53.300;-6.260;2022-10-14T05:36:44;6.97;;;0.97;;
71941;SDS011;59997;53.300;-6.260;2022-10-14T05:39:10;5.27;;;0.83;;
71941;SDS011;59997;53.300;-6.260;2022-10-14T05:41:36;7.80;;;0.60;;
71941;SDS011;59997;53.300;-6.260;2022-10-14T05:44:02;5.60;;;0.97;;
71941;SDS011;59997;53.300;-6.260;2022-10-14T05:46:28;6.60;;;1.00;;
71941;SDS011;59997;53.300;-6.260;2022-10-14T05:48:54;8.85;;;0.90;;
71941;SDS011;59997;53.300;-6.260;2022-10-14T05:51:21;6.10;;;0.83;;
71941;SDS011;59997;53.300;-6.260;2022-10-14T05:53:46;6.43;;;1.10;;
71941;SDS011;59997;53.300;-6.260;2022-10-14T05:56:12;5.63;;;0.70;;
71941;SDS011;59997;53.300;-6.260;2022-10-14T05:58:38;7.35;;;0.90;;
71941;SDS011;59997;53.300;-6.260;2022-10-14T06:01:05;6.40;;;1.05;;
71941;SDS011;59997;53.300;-6.260;2022-10-14T06:03:32;6.97;;;0.90;;
71941;SDS011;59997;53.300;-6.260;2022-10-14T06:05:58;6.68;;;0.82;;
71941;SDS011;59997;53.300;-6.260;2022-10-14T06:08:23;7.20;;;0.70;;
71941;SDS011;59997;53.300;-6.260;2022-10-14T06:10:49;6.20;;;0.90;;
71941;SDS011;59997;53.300;-6.260;2022-10-14T06:13:16;8.60;;;1.02;;
71941;SDS011;59997;53.300;-6.260;2022-10-14T06:15:41;6.33;;;1.10;;
71941;SDS011;59997;53.300;-6.260;2022-10-14T06:18:07;9.07;;;1.10;;
71941;SDS011;59997;53.300;-6.260;2022-10-14T06:20:33;9.23;;;1.00;;
71941;SDS011;59997;53.300;-6.260;2022-10-14T06:22:59;7.80;;;0.80;;
71941;SDS011;59997;53.300;-6.260;2022-10-14T06:25:26;7.45;;;1.15;;
71941;SDS011;59997;53.300;-6.260;2022-10-14T06:27:51;7.13;;;1.07;;
71941;SDS011;59997;53.300;-6.260;2022-10-14T06:30:17;8.70;;;0.88;;
71941;SDS011;59997;53.300;-6.260;2022-10-14T06:32:42;8.23;;;0.83;;
71941;SDS011;59997;53.300;-6.260;2022-10-14T06:35:08;9.20;;;1.20;;
71941;SDS011;59997;53.300;-6.260;2022-10-14T06:37:33;6.40;;;0.90;;
71941;SDS011;59997;53.300;-6.260;2022-10-14T06:39:59;8.93;;;0.80;;
71941;SDS011;59997;53.300;-6.260;2022-10-14T06:42:24;5.33;;;1.10;;
71941;SDS011;59997;53.300;-6.260;2022-10-14T06:44:51;5.70;;;0.83;;
71941;SDS011;59997;53.300;-6.260;2022-10-14T06:47:16;6.35;;;0.90;;
71941;SDS011;59997;53.300;-6.260;2022-10-14T06:49:42;7.73;;;0.90;;
71941;SDS011;59997;53.300;-6.260;2022-10-14T06:52:07;5.63;;;1.07;;
71941;SDS011;59997;53.300;-6.260;2022-10-14T06:54:32;8.90;;;1.10;;
71941;SDS011;59997;53.300;-6.260;2022-10-14T06:56:58;7.45;;;1.20;;
71941;SDS011;59997;53.300;-6.260;2022-10-14T06:59:23;8.43;;;1.00;;
71941;SDS011;59997;53.300;-6.260;2022-10-14T07:01:49;5.83;;;0.70;;
71941;SDS011;59997;53.300;-6.260;2022-10-14T07:04:15;7.50;;;0.90;;
71941;SDS011;59997;53.300;-6.260;2022-10-14T07:06:41;9.47;;;1.20;;
71941;SDS011;59997;53.300;-6.260;2022-10-14T07:09:06;7.78;;;1.17;;
71941;SDS011;59997;53.300;-6.260;2022-10-14T07:11:31;13.53;;;1.23;;
71941;SDS011;59997;53.300;-6.260;2022-10-14T07:13:57;6.83;;;0.73;;
71941;SDS011;59997;53.300;-6.260;2022-10-14T07:16:23;7.63;;;1.10;;
71941;SDS011;59997;53.300;-6.260;2022-10-14T07:18:49;7.00;;;1.30;;
71941;SDS011;59997;53.300;-6.260;2022-10-14T07:21:14;7.70;;;1.25;;
71941;SDS011;59997;53.300;-6.260;2022-10-14T07:23:40;7.90;;;1.00;;
71941;SDS011;59997;53.300;-6.260;2022-10-14T07:26:05;8.40;;;1.33;;
71941;SDS011;59997;53.300;-6.260;2022-10-14T07:28:31;8.98;;;0.90;;
71941;SDS011;59997;53.300;-6.260;2022-10-14T07:31:02;8.27;;;0.80;;
71941;SDS011;59997;53.300;-6.260;2022-10-14T07:33:30;7.63;;;0.80;;
71941;SDS011;59997;53.300;-6.260;2022-10-14T07:35:59;6.87;;;0.80;;
71941;SDS011;59997;53.300;-6.260;2022-10-14T07:38:28;8.13;;;1.17;;
71941;SDS011;59997;53.300;-6.260;2022-10-14T07:41:05;11.50;;;0.73;;
71941;SDS011;59997;53.300;-6.260;2022-10-14T07:43:33;8.63;;;1.03;;
71941;SDS011;59997;53.300;-6.260;2022-10-14T07:46:00;7.50;;;0.75;;
71941;SDS011;59997;53.300;-6.260;2022-10-14T07:48:29;9.45;;;1.58;;
71941;SDS011;59997;53.300;-6.260;2022-10-14T07:50:55;9.00;;;0.80;;
71941;SDS011;59997;53.300;-6.260;2022-10-14T07:53:21;5.80;;;0.97;;
71941;SDS011;59997;53.300;-6.260;2022-10-14T07:55:47;5.90;;;0.55;;
71941;SDS011;59997;53.300;-6.260;2022-10-14T07:58:37;7.30;;;1.23;;
71941;SDS011;59997;53.300;-6.260;2022-10-14T08:01:01;7.10;;;1.05;;
71941;SDS011;59997;53.300;-6.260;2022-10-14T08:03:27;8.77;;;1.03;;
71941;SDS011;59997;53.300;-6.260;2022-10-14T08:05:59;3.53;;;0.60;;
71941;SDS011;59997;53.300;-6.260;2022-10-14T08:08:26;11.68;;;1.20;;
71941;SDS011;59997;53.300;-6.260;2022-10-14T08:11:12;8.77;;;0.75;;
71941;SDS011;59997;53.300;-6.260;2022-10-14T08:13:42;8.63;;;0.80;;
71941;SDS011;59997;53.300;-6.260;2022-10-14T08:16:24;5.70;;;0.70;;
71941;SDS011;59997;53.300;-6.260;2022-10-14T08:18:51;6.55;;;0.75;;
71941;SDS011;59997;53.300;-6.260;2022-10-14T08:21:17;7.43;;;0.75;;
71941;SDS011;59997;53.300;-6.260;2022-10-14T08:23:44;10.82;;;0.82;;
71941;SDS011;59997;53.300;-6.260;2022-10-14T08:28:50;11.02;;;1.10;;
71941;SDS011;59997;53.300;-6.260;2022-10-14T08:31:17;8.30;;;0.95;;
71941;SDS011;59997;53.300;-6.260;2022-10-14T08:33:43;9.55;;;1.23;;
71941;SDS011;59997;53.300;-6.260;2022-10-14T08:36:08;11.23;;;1.23;;
71941;SDS011;59997;53.300;-6.260;2022-10-14T08:38:34;8.60;;;1.40;;
71941;SDS011;59997;53.300;-6.260;2022-10-14T08:46:23;5.70;;;1.00;;
71941;SDS011;59997;53.300;-6.260;2022-10-14T08:48:58;10.35;;;1.20;;
71941;SDS011;59997;53.300;-6.260;2022-10-14T08:51:33;6.50;;;1.25;;
71941;SDS011;59997;53.300;-6.260;2022-10-14T08:53:59;9.00;;;1.25;;
71941;SDS011;59997;53.300;-6.260;2022-10-14T08:56:32;9.63;;;1.20;;
71941;SDS011;59997;53.300;-6.260;2022-10-14T08:59:02;8.77;;;1.10;;
71941;SDS011;59997;53.300;-6.260;2022-10-14T09:01:32;9.75;;;1.55;;
71941;SDS011;59997;53.300;-6.260;2022-10-14T09:04:03;8.65;;;1.70;;
71941;SDS011;59997;53.300;-6.260;2022-10-14T09:06:34;6.65;;;1.45;;
71941;SDS011;59997;53.300;-6.260;2022-10-14T09:09:22;7.65;;;1.55;;
71941;SDS011;59997;53.300;-6.260;2022-10-14T09:11:53;6.50;;;1.00;;
71941;SDS011;59997;53.300;-6.260;2022-10-14T09:14:25;5.78;;;0.88;;
71941;SDS011;59997;53.300;-6.260;2022-10-14T09:16:59;9.40;;;1.80;;
71941;SDS011;59997;53.300;-6.260;2022-10-14T09:20:34;8.35;;;0.70;;
71941;SDS011;59997;53.300;-6.260;2022-10-14T09:22:42;9.23;;;1.38;;
71941;SDS011;59997;53.300;-6.260;2022-10-14T09:25:12;6.87;;;1.03;;
71941;SDS011;59997;53.300;-6.260;2022-10-14T09:27:39;8.25;;;1.10;;
71941;SDS011;59997;53.300;-6.260;2022-10-14T09:30:05;8.98;;;1.40;;
71941;SDS011;59997;53.300;-6.260;2022-10-14T09:35:02;7.47;;;0.80;;
71941;SDS011;59997;53.300;-6.260;2022-10-14T09:37:28;9.95;;;1.30;;
71941;SDS011;59997;53.300;-6.260;2022-10-14T09:40:05;7.22;;;1.30;;
71941;SDS011;59997;53.300;-6.260;2022-10-14T09:42:46;8.98;;;1.10;;
71941;SDS011;59997;53.300;-6.260;2022-10-14T09:45:17;9.40;;;1.25;;
71941;SDS011;59997;53.300;-6.260;2022-10-14T09:47:53;7.43;;;1.70;;
71941;SDS011;59997;53.300;-6.260;2022-10-14T09:53:03;8.77;;;2.28;;
71941;SDS011;59997;53.300;-6.260;2022-10-14T09:55:32;6.82;;;1.15;;
71941;SDS011;59997;53.300;-6.260;2022-10-14T09:58:07;5.70;;;0.98;;
71941;SDS011;59997;53.300;-6.260;2022-10-14T10:00:41;9.30;;;1.20;;
71941;SDS011;59997;53.300;-6.260;2022-10-14T10:03:08;8.75;;;2.05;;
71941;SDS011;59997;53.300;-6.260;2022-10-14T10:06:18;7.45;;;1.83;;
71941;SDS011;59997;53.300;-6.260;2022-10-14T10:11:26;7.47;;;0.82;;
71941;SDS011;59997;53.300;-6.260;2022-10-14T10:13:54;5.47;;;0.70;;
71941;SDS011;59997;53.300;-6.260;2022-10-14T10:18:47;6.32;;;1.60;;
71941;SDS011;59997;53.300;-6.260;2022-10-14T10:21:34;6.85;;;1.55;;
71941;SDS011;59997;53.300;-6.260;2022-10-14T10:24:01;8.27;;;1.77;;
71941;SDS011;59997;53.300;-6.260;2022-10-14T10:26:28;7.70;;;1.13;;
71941;SDS011;59997;53.300;-6.260;2022-10-14T10:28:59;7.10;;;1.90;;
71941;SDS011;59997;53.300;-6.260;2022-10-14T10:31:47;8.18;;;1.80;;
71941;SDS011;59997;53.300;-6.260;2022-10-14T10:45:05;8.93;;;1.13;;
71941;SDS011;59997;53.300;-6.260;2022-10-14T11:01:31;6.45;;;0.80;;
71941;SDS011;59997;53.300;-6.260;2022-10-14T11:07:07;6.18;;;1.02;;
71941;SDS011;59997;53.300;-6.260;2022-10-14T11:10:09;7.05;;;0.98;;
71941;SDS011;59997;53.300;-6.260;2022-10-14T11:15:49;5.95;;;0.70;;
71941;SDS011;59997;53.300;-6.260;2022-10-14T11:18:43;10.40;;;1.07;;
71941;SDS011;59997;53.300;-6.260;2022-10-14T11:21:40;5.68;;;1.05;;
71941;SDS011;59997;53.300;-6.260;2022-10-14T11:24:28;10.25;;;1.00;;
71941;SDS011;59997;53.300;-6.260;2022-10-14T11:27:04;7.30;;;1.00;;
71941;SDS011;59997;53.300;-6.260;2022-10-14T11:35:31;6.90;;;0.90;;
71941;SDS011;59997;53.300;-6.260;2022-10-14T11:41:16;7.55;;;0.90;;
71941;SDS011;59997;53.300;-6.260;2022-10-14T11:44:06;7.47;;;0.95;;
71941;SDS011;59997;53.300;-6.260;2022-10-14T11:46:34;5.00;;;0.73;;
71941;SDS011;59997;53.300;-6.260;2022-10-14T11:49:23;5.93;;;0.85;;
71941;SDS011;59997;53.300;-6.260;2022-10-14T11:51:54;7.45;;;0.85;;
71941;SDS011;59997;53.300;-6.260;2022-10-14T11:54:33;7.20;;;0.80;;
71941;SDS011;59997;53.300;-6.260;2022-10-14T12:02:03;7.97;;;0.82;;
71941;SDS011;59997;53.300;-6.260;2022-10-14T12:04:38;8.13;;;0.90;;
71941;SDS011;59997;53.300;-6.260;2022-10-14T12:07:13;6.18;;;0.55;;
71941;SDS011;59997;53.300;-6.260;2022-10-14T12:09:43;7.03;;;0.60;;
71941;SDS011;59997;53.300;-6.260;2022-10-14T12:12:14;6.47;;;0.53;;
71941;SDS011;59997;53.300;-6.260;2022-10-14T12:14:46;5.40;;;0.60;;
71941;SDS011;59997;53.300;-6.260;2022-10-14T12:20:15;6.00;;;0.50;;
71941;SDS011;59997;53.300;-6.260;2022-10-14T12:22:48;7.72;;;0.70;;
71941;SDS011;59997;53.300;-6.260;2022-10-14T12:25:16;9.30;;;1.03;;
71941;SDS011;59997;53.300;-6.260;2022-10-14T12:27:44;9.20;;;1.27;;
71941;SDS011;59997;53.300;-6.260;2022-10-14T12:38:13;8.30;;;1.10;;
71941;SDS011;59997;53.300;-6.260;2022-10-14T12:40:38;10.70;;;1.00;;
71941;SDS011;59997;53.300;-6.260;2022-10-14T12:43:11;7.97;;;0.80;;
71941;SDS011;59997;53.300;-6.260;2022-10-14T12:45:53;9.57;;;0.90;;
71941;SDS011;59997;53.300;-6.260;2022-10-14T12:48:25;7.88;;;0.93;;
71941;SDS011;59997;53.300;-6.260;2022-10-14T12:51:15;6.68;;;0.60;;
71941;SDS011;59997;53.300;-6.260;2022-10-14T12:54:15;4.18;;;0.70;;
71941;SDS011;59997;53.300;-6.260;2022-10-14T12:56:41;5.80;;;0.70;;
71941;SDS011;59997;53.300;-6.260;2022-10-14T12:59:29;6.35;;;0.85;;
71941;SDS011;59997;53.300;-6.260;2022-10-14T13:01:59;5.47;;;0.63;;
71941;SDS011;59997;53.300;-6.260;2022-10-14T13:04:29;5.75;;;0.65;;
71941;SDS011;59997;53.300;-6.260;2022-10-14T13:09:45;7.20;;;1.13;;
71941;SDS011;59997;53.300;-6.260;2022-10-14T13:14:57;6.40;;;1.23;;
71941;SDS011;59997;53.300;-6.260;2022-10-14T13:17:28;5.95;;;1.00;;
71941;SDS011;59997;53.300;-6.260;2022-10-14T13:19:54;5.53;;;0.68;;
71941;SDS011;59997;53.300;-6.260;2022-10-14T13:25:12;8.68;;;1.30;;
71941;SDS011;59997;53.300;-6.260;2022-10-14T13:27:42;6.55;;;1.23;;
71941;SDS011;59997;53.300;-6.260;2022-10-14T13:30:30;6.87;;;1.83;;
71941;SDS011;59997;53.300;-6.260;2022-10-14T13:33:03;8.13;;;1.42;;
71941;SDS011;59997;53.300;-6.260;2022-10-14T13:35:56;5.63;;;1.15;;
71941;SDS011;59997;53.300;-6.260;2022-10-14T13:38:31;8.07;;;1.13;;
71941;SDS011;59997;53.300;-6.260;2022-10-14T13:40:58;6.45;;;1.20;;
71941;SDS011;59997;53.300;-6.260;2022-10-14T13:49:03;7.78;;;1.02;;
71941;SDS011;59997;53.300;-6.260;2022-10-14T13:51:49;7.03;;;1.23;;
71941;SDS011;59997;53.300;-6.260;2022-10-14T13:54:25;8.15;;;0.90;;
71941;SDS011;59997;53.300;-6.260;2022-10-14T13:59:28;6.38;;;0.82;;
71941;SDS011;59997;53.300;-6.260;2022-10-14T14:01:55;7.47;;;0.90;;
71941;SDS011;59997;53.300;-6.260;2022-10-14T14:04:23;6.97;;;1.00;;
71941;SDS011;59997;53.300;-6.260;2022-10-14T14:06:51;6.30;;;1.15;;
71941;SDS011;59997;53.300;-6.260;2022-10-14T14:09:22;6.78;;;1.00;;
71941;SDS011;59997;53.300;-6.260;2022-10-14T14:11:51;5.55;;;1.00;;
71941;SDS011;59997;53.300;-6.260;2022-10-14T14:14:22;6.23;;;1.13;;
71941;SDS011;59997;53.300;-6.260;2022-10-14T14:16:54;6.85;;;0.90;;
71941;SDS011;59997;53.300;-6.260;2022-10-14T14:19:28;6.90;;;1.25;;
71941;SDS011;59997;53.300;-6.260;2022-10-14T14:22:04;7.72;;;1.00;;
71941;SDS011;59997;53.300;-6.260;2022-10-14T14:24:51;6.30;;;0.70;;
71941;SDS011;59997;53.300;-6.260;2022-10-14T14:27:32;6.53;;;1.00;;
71941;SDS011;59997;53.300;-6.260;2022-10-14T14:29:58;9.63;;;1.55;;
71941;SDS011;59997;53.300;-6.260;2022-10-14T14:32:30;5.10;;;0.60;;
71941;SDS011;59997;53.300;-6.260;2022-10-14T14:34:56;8.15;;;0.80;;
71941;SDS011;59997;53.300;-6.260;2022-10-14T14:37:26;6.05;;;1.15;;
71941;SDS011;59997;53.300;-6.260;2022-10-14T14:39:57;10.20;;;1.10;;
71941;SDS011;59997;53.300;-6.260;2022-10-14T14:42:29;5.30;;;0.80;;
71941;SDS011;59997;53.300;-6.260;2022-10-14T14:45:01;6.77;;;0.80;;
71941;SDS011;59997;53.300;-6.260;2022-10-14T14:47:30;5.85;;;0.82;;
71941;SDS011;59997;53.300;-6.260;2022-10-14T14:49:56;7.03;;;0.80;;
71941;SDS011;59997;53.300;-6.260;2022-10-14T14:52:23;7.25;;;0.70;;
71941;SDS011;59997;53.300;-6.260;2022-10-14T14:54:49;7.10;;;1.00;;
71941;SDS011;59997;53.300;-6.260;2022-10-14T14:57:18;4.57;;;0.70;;
71941;SDS011;59997;53.300;-6.260;2022-10-14T15:02:31;6.05;;;0.70;;
71941;SDS011;59997;53.300;-6.260;2022-10-14T15:04:59;5.78;;;0.65;;
71941;SDS011;59997;53.300;-6.260;2022-10-14T15:07:32;6.50;;;0.60;;
71941;SDS011;59997;53.300;-6.260;2022-10-14T15:09:59;4.25;;;0.60;;
71941;SDS011;59997;53.300;-6.260;2022-10-14T15:12:28;9.95;;;0.90;;
71941;SDS011;59997;53.300;-6.260;2022-10-14T15:15:03;5.15;;;0.50;;
71941;SDS011;59997;53.300;-6.260;2022-10-14T15:20:18;6.73;;;0.83;;
71941;SDS011;59997;53.300;-6.260;2022-10-14T15:22:53;5.93;;;0.60;;
71941;SDS011;59997;53.300;-6.260;2022-10-14T15:25:22;7.33;;;0.80;;
71941;SDS011;59997;53.300;-6.260;2022-10-14T15:27:52;8.52;;;0.93;;
71941;SDS011;59997;53.300;-6.260;2022-10-14T15:32:57;9.70;;;0.85;;
71941;SDS011;59997;53.300;-6.260;2022-10-14T15:35:25;4.90;;;0.70;;
71941;SDS011;59997;53.300;-6.260;2022-10-14T15:37:51;4.93;;;0.70;;
71941;SDS011;59997;53.300;-6.260;2022-10-14T15:40:22;5.18;;;0.52;;
71941;SDS011;59997;53.300;-6.260;2022-10-14T15:42:52;6.68;;;0.63;;
71941;SDS011;59997;53.300;-6.260;2022-10-14T15:45:18;6.67;;;1.20;;
71941;SDS011;59997;53.300;-6.260;2022-10-14T15:47:44;6.43;;;0.70;;
71941;SDS011;59997;53.300;-6.260;2022-10-14T15:52:43;5.97;;;0.87;;
71941;SDS011;59997;53.300;-6.260;2022-10-14T15:55:14;4.82;;;0.70;;
71941;SDS011;59997;53.300;-6.260;2022-10-14T15:57:41;5.90;;;0.90;;
71941;SDS011;59997;53.300;-6.260;2022-10-14T16:00:07;6.73;;;0.70;;
71941;SDS011;59997;53.300;-6.260;2022-10-14T16:02:33;8.70;;;0.75;;
71941;SDS011;59997;53.300;-6.260;2022-10-14T16:04:59;6.97;;;0.60;;
71941;SDS011;59997;53.300;-6.260;2022-10-14T16:07:24;8.23;;;0.93;;
71941;SDS011;59997;53.300;-6.260;2022-10-14T16:09:50;4.33;;;0.50;;
71941;SDS011;59997;53.300;-6.260;2022-10-14T16:12:15;6.80;;;0.80;;
71941;SDS011;59997;53.300;-6.260;2022-10-14T16:14:41;9.50;;;0.90;;
71941;SDS011;59997;53.300;-6.260;2022-10-14T16:17:07;8.57;;;1.00;;
71941;SDS011;59997;53.300;-6.260;2022-10-14T16:19:33;6.93;;;0.60;;
71941;SDS011;59997;53.300;-6.260;2022-10-14T16:21:59;5.77;;;0.60;;
71941;SDS011;59997;53.300;-6.260;2022-10-14T16:24:24;5.93;;;0.70;;
71941;SDS011;59997;53.300;-6.260;2022-10-14T16:26:50;7.47;;;1.00;;
71941;SDS011;59997;53.300;-6.260;2022-10-14T16:29:16;6.20;;;0.95;;
71941;SDS011;59997;53.300;-6.260;2022-10-14T16:31:43;4.72;;;0.70;;
71941;SDS011;59997;53.300;-6.260;2022-10-14T16:34:17;6.90;;;0.75;;
71941;SDS011;59997;53.300;-6.260;2022-10-14T16:36:44;11.93;;;1.35;;
71941;SDS011;59997;53.300;-6.260;2022-10-14T16:39:10;5.20;;;0.63;;
71941;SDS011;59997;53.300;-6.260;2022-10-14T16:41:37;8.60;;;0.90;;
71941;SDS011;59997;53.300;-6.260;2022-10-14T16:44:03;6.10;;;1.00;;
71941;SDS011;59997;53.300;-6.260;2022-10-14T16:46:29;8.65;;;0.90;;
71941;SDS011;59997;53.300;-6.260;2022-10-14T16:49:14;7.55;;;1.08;;
71941;SDS011;59997;53.300;-6.260;2022-10-14T16:51:42;7.43;;;0.97;;
71941;SDS011;59997;53.300;-6.260;2022-10-14T16:54:09;11.18;;;2.20;;
71941;SDS011;59997;53.300;-6.260;2022-10-14T16:56:35;12.45;;;2.80;;
71941;SDS011;59997;53.300;-6.260;2022-10-14T16:59:16;11.27;;;2.63;;